sensor_id;sensor_type;location;lat;lon;timestamp;pressure;altitude;pressure_sealevel;temperature;humidity
71964;BME280;59834;52.124;5.422;2023-05-21T00:00:44;102001.44;;;15.27;64.12
71964;BME280;59834;52.124;5.422;2023-05-21T00:03:11;101999.81;;;15.24;64.07
71964;BME280;59834;52.124;5.422;2023-05-21T00:05:42;101999.81;;;15.24;64.18
71964;BME280;59834;52.124;5.422;2023-05-21T00:08:22;101990.31;;;15.22;64.02
71964;BME280;59834;52.124;5.422;2023-05-21T00:10:50;101999.19;;;15.21;64.30
71964;BME280;59834;52.124;5.422;2023-05-21T00:13:28;101994.94;;;15.18;64.49
71964;BME280;59834;52.124;5.422;2023-05-21T00:15:55;101997.69;;;15.17;65.10
71964;BME280;59834;52.124;5.422;2023-05-21T00:18:23;101999.50;;;15.16;65.45
71964;BME280;59834;52.124;5.422;2023-05-21T00:20:51;101998.72;;;15.14;65.54
71964;BME280;59834;52.124;5.422;2023-05-21T00:23:18;101990.06;;;15.12;64.97
71964;BME280;59834;52.124;5.422;2023-05-21T00:25:45;101989.97;;;15.14;65.40
71964;BME280;59834;52.124;5.422;2023-05-21T00:28:12;101990.94;;;15.13;65.09
71964;BME280;59834;52.124;5.422;2023-05-21T00:30:43;101984.72;;;15.14;65.03
71964;BME280;59834;52.124;5.422;2023-05-21T00:33:12;101976.16;;;15.10;65.59
71964;BME280;59834;52.124;5.422;2023-05-21T00:35:39;101975.31;;;15.09;65.66
71964;BME280;59834;52.124;5.422;2023-05-21T00:38:06;101981.50;;;15.08;66.07
71964;BME280;59834;52.124;5.422;2023-05-21T00:40:34;101975.50;;;15.06;66.18
71964;BME280;59834;52.124;5.422;2023-05-21T00:43:01;101978.41;;;15.02;66.49
71964;BME280;59834;52.124;5.422;2023-05-21T00:45:28;101978.72;;;14.97;66.51
71964;BME280;59834;52.124;5.422;2023-05-21T00:47:56;101969.13;;;14.96;66.22
71964;BME280;59834;52.124;5.422;2023-05-21T00:50:23;101973.63;;;14.94;66.86
71964;BME280;59834;52.124;5.422;2023-05-21T00:52:55;101968.47;;;14.93;66.68
71964;BME280;59834;52.124;5.422;2023-05-21T00:55:23;101974.59;;;14.93;66.94
71964;BME280;59834;52.124;5.422;2023-05-21T00:57:50;101971.19;;;14.91;67.33
71964;BME280;59834;52.124;5.422;2023-05-21T01:00:18;101958.00;;;14.91;67.10
71964;BME280;59834;52.124;5.422;2023-05-21T01:02:50;101968.88;;;14.87;67.27
71964;BME280;59834;52.124;5.422;2023-05-21T01:05:17;101973.28;;;14.86;67.45
71964;BME280;59834;52.124;5.422;2023-05-21T01:07:45;101955.03;;;14.83;67.30
71964;BME280;59834;52.124;5.422;2023-05-21T01:10:15;101966.31;;;14.85;67.71
71964;BME280;59834;52.124;5.422;2023-05-21T01:12:43;101961.03;;;14.85;67.62
71964;BME280;59834;52.124;5.422;2023-05-21T01:15:17;101967.25;;;14.84;67.70
71964;BME280;59834;52.124;5.422;2023-05-21T01:17:47;101955.97;;;14.82;67.64
71964;BME280;59834;52.124;5.422;2023-05-21T01:20:18;101959.53;;;14.81;68.22
71964;BME280;59834;52.124;5.422;2023-05-21T01:22:51;101952.59;;;14.80;68.07
71964;BME280;59834;52.124;5.422;2023-05-21T01:25:20;101952.78;;;14.77;68.35
71964;BME280;59834;52.124;5.422;2023-05-21T01:27:51;101955.50;;;14.75;68.79
71964;BME280;59834;52.124;5.422;2023-05-21T01:30:18;101949.56;;;14.72;68.88
71964;BME280;59834;52.124;5.422;2023-05-21T01:33:06;101949.69;;;14.70;68.51
71964;BME280;59834;52.124;5.422;2023-05-21T01:43:10;101940.66;;;14.60;69.20
71964;BME280;59834;52.124;5.422;2023-05-21T01:45:43;101944.34;;;14.57;68.90
71964;BME280;59834;52.124;5.422;2023-05-21T01:48:12;101940.03;;;14.56;69.34
71964;BME280;59834;52.124;5.422;2023-05-21T01:50:42;101943.59;;;14.55;69.28
71964;BME280;59834;52.124;5.422;2023-05-21T01:53:12;101945.47;;;14.53;69.40
71964;BME280;59834;52.124;5.422;2023-05-21T01:55:46;101941.06;;;14.54;69.24
71964;BME280;59834;52.124;5.422;2023-05-21T01:58:17;101950.75;;;14.53;69.42
71964;BME280;59834;52.124;5.422;2023-05-21T02:00:48;101944.78;;;14.50;69.86
71964;BME280;59834;52.124;5.422;2023-05-21T02:03:24;101948.47;;;14.47;69.95
71964;BME280;59834;52.124;5.422;2023-05-21T02:06:02;101937.16;;;14.45;69.90
71964;BME280;59834;52.124;5.422;2023-05-21T02:08:29;101936.44;;;14.43;70.63
71964;BME280;59834;52.124;5.422;2023-05-21T02:11:04;101939.06;;;14.43;70.21
71964;BME280;59834;52.124;5.422;2023-05-21T02:13:44;101939.06;;;14.43;69.94
71964;BME280;59834;52.124;5.422;2023-05-21T02:16:24;101943.56;;;14.41;70.81
71964;BME280;59834;52.124;5.422;2023-05-21T02:18:55;101936.81;;;14.37;71.16
71964;BME280;59834;52.124;5.422;2023-05-21T02:21:26;101937.75;;;14.36;70.66
71964;BME280;59834;52.124;5.422;2023-05-21T02:23:59;101939.44;;;14.37;71.07
71964;BME280;59834;52.124;5.422;2023-05-21T02:26:36;101935.31;;;14.33;71.22
71964;BME280;59834;52.124;5.422;2023-05-21T02:29:07;101935.50;;;14.30;71.42
71964;BME280;59834;52.124;5.422;2023-05-21T02:31:35;101932.09;;;14.28;71.75
71964;BME280;59834;52.124;5.422;2023-05-21T02:34:05;101939.16;;;14.27;71.85
71964;BME280;59834;52.124;5.422;2023-05-21T02:36:35;101943.69;;;14.25;71.95
71964;BME280;59834;52.124;5.422;2023-05-21T02:39:03;101944.59;;;14.24;72.22
71964;BME280;59834;52.124;5.422;2023-05-21T02:41:32;101933.22;;;14.24;72.47
71964;BME280;59834;52.124;5.422;2023-05-21T02:44:00;101949.88;;;14.24;72.50
71964;BME280;59834;52.124;5.422;2023-05-21T02:46:30;101942.28;;;14.20;72.56
71964;BME280;59834;52.124;5.422;2023-05-21T02:49:11;101944.78;;;14.21;72.63
71964;BME280;59834;52.124;5.422;2023-05-21T02:51:39;101944.97;;;14.18;72.08
71964;BME280;59834;52.124;5.422;2023-05-21T02:54:12;101932.94;;;14.14;73.62
71964;BME280;59834;52.124;5.422;2023-05-21T02:56:39;101939.16;;;14.13;73.59
71964;BME280;59834;52.124;5.422;2023-05-21T02:59:06;101943.47;;;14.14;73.17
71964;BME280;59834;52.124;5.422;2023-05-21T03:01:33;101939.25;;;14.11;73.74
71964;BME280;59834;52.124;5.422;2023-05-21T03:04:00;101936.72;;;14.10;72.99
71964;BME280;59834;52.124;5.422;2023-05-21T03:06:34;101936.72;;;14.10;73.86
71964;BME280;59834;52.124;5.422;2023-05-21T03:09:02;101931.56;;;14.08;73.83
71964;BME280;59834;52.124;5.422;2023-05-21T03:14:09;101935.94;;;14.08;74.35
71964;BME280;59834;52.124;5.422;2023-05-21T03:16:37;101930.78;;;14.06;74.40
71964;BME280;59834;52.124;5.422;2023-05-21T03:19:07;101934.38;;;14.05;74.73
71964;BME280;59834;52.124;5.422;2023-05-21T03:21:37;101929.09;;;14.05;74.56
71964;BME280;59834;52.124;5.422;2023-05-21T03:24:04;101925.72;;;14.03;74.91
71964;BME280;59834;52.124;5.422;2023-05-21T03:26:32;101927.50;;;14.03;75.28
71964;BME280;59834;52.124;5.422;2023-05-21T03:29:07;101929.28;;;14.02;75.81
71964;BME280;59834;52.124;5.422;2023-05-21T03:31:36;101920.63;;;14.00;75.30
71964;BME280;59834;52.124;5.422;2023-05-21T03:34:09;101919.69;;;14.01;75.73
71964;BME280;59834;52.124;5.422;2023-05-21T03:36:37;101915.38;;;14.00;75.61
71964;BME280;59834;52.124;5.422;2023-05-21T03:39:04;101912.72;;;14.00;75.29
71964;BME280;59834;52.124;5.422;2023-05-21T03:41:32;101918.75;;;14.02;75.77
71964;BME280;59834;52.124;5.422;2023-05-21T03:44:06;101923.06;;;14.03;75.85
71964;BME280;59834;52.124;5.422;2023-05-21T03:46:33;101915.19;;;14.03;76.21
71964;BME280;59834;52.124;5.422;2023-05-21T03:49:03;101911.78;;;14.01;76.50
71964;BME280;59834;52.124;5.422;2023-05-21T03:51:30;101916.13;;;14.02;76.48
71964;BME280;59834;52.124;5.422;2023-05-21T03:54:02;101913.50;;;14.02;76.50
71964;BME280;59834;52.124;5.422;2023-05-21T03:56:34;101914.34;;;14.03;76.77
71964;BME280;59834;52.124;5.422;2023-05-21T03:59:04;101909.91;;;14.03;76.67
71964;BME280;59834;52.124;5.422;2023-05-21T04:01:31;101915.19;;;14.03;76.74
71964;BME280;59834;52.124;5.422;2023-05-21T04:03:59;101906.34;;;14.04;76.97
71964;BME280;59834;52.124;5.422;2023-05-21T04:06:28;101914.22;;;14.04;77.18
71964;BME280;59834;52.124;5.422;2023-05-21T04:08:58;101905.59;;;14.02;77.18
71964;BME280;59834;52.124;5.422;2023-05-21T04:11:26;101915.28;;;14.02;77.76
71964;BME280;59834;52.124;5.422;2023-05-21T04:13:54;101911.78;;;14.01;76.95
71964;BME280;59834;52.124;5.422;2023-05-21T04:16:22;101902.97;;;14.02;78.19
71964;BME280;59834;52.124;5.422;2023-05-21T04:18:50;101910.88;;;14.02;78.34
71964;BME280;59834;52.124;5.422;2023-05-21T04:21:22;101909.44;;;13.97;78.71
71964;BME280;59834;52.124;5.422;2023-05-21T04:23:49;101913.88;;;13.96;78.90
71964;BME280;59834;52.124;5.422;2023-05-21T04:26:17;101917.22;;;13.98;78.63
71964;BME280;59834;52.124;5.422;2023-05-21T04:28:50;101913.50;;;14.02;78.94
71964;BME280;59834;52.124;5.422;2023-05-21T04:31:20;101913.50;;;14.02;78.79
71964;BME280;59834;52.124;5.422;2023-05-21T04:33:50;101912.56;;;14.03;78.85
71964;BME280;59834;52.124;5.422;2023-05-21T04:36:18;101915.06;;;14.05;78.91
71964;BME280;59834;52.124;5.422;2023-05-21T04:38:45;101919.59;;;14.03;78.45
71964;BME280;59834;52.124;5.422;2023-05-21T04:41:12;101916.88;;;14.04;79.05
71964;BME280;59834;52.124;5.422;2023-05-21T04:43:40;101918.75;;;14.02;78.67
71964;BME280;59834;52.124;5.422;2023-05-21T04:46:14;101915.19;;;14.03;79.17
71964;BME280;59834;52.124;5.422;2023-05-21T04:48:44;101910.88;;;14.02;78.68
71964;BME280;59834;52.124;5.422;2023-05-21T04:51:12;101916.97;;;14.03;78.85
71964;BME280;59834;52.124;5.422;2023-05-21T04:53:40;101922.13;;;14.04;79.59
71964;BME280;59834;52.124;5.422;2023-05-21T04:56:07;101914.22;;;14.04;79.20
71964;BME280;59834;52.124;5.422;2023-05-21T04:58:35;101916.03;;;14.04;79.27
71964;BME280;59834;52.124;5.422;2023-05-21T05:01:04;101920.44;;;14.03;79.74
71964;BME280;59834;52.124;5.422;2023-05-21T05:03:34;101929.94;;;14.06;79.76
71964;BME280;59834;52.124;5.422;2023-05-21T05:06:02;101923.66;;;14.08;79.69
71964;BME280;59834;52.124;5.422;2023-05-21T05:08:31;101927.78;;;14.12;78.62
71964;BME280;59834;52.124;5.422;2023-05-21T05:11:12;101931.16;;;14.14;79.36
71964;BME280;59834;52.124;5.422;2023-05-21T05:13:41;101930.25;;;14.15;79.50
71964;BME280;59834;52.124;5.422;2023-05-21T05:16:09;101931.91;;;14.17;79.20
71964;BME280;59834;52.124;5.422;2023-05-21T05:18:36;101924.03;;;14.17;79.39
71964;BME280;59834;52.124;5.422;2023-05-21T05:21:03;101925.81;;;14.16;79.88
71964;BME280;59834;52.124;5.422;2023-05-21T05:23:30;101927.50;;;14.17;79.35
71964;BME280;59834;52.124;5.422;2023-05-21T05:25:57;101922.41;;;14.14;79.39
71964;BME280;59834;52.124;5.422;2023-05-21T05:28:24;101920.53;;;14.16;79.39
71964;BME280;59834;52.124;5.422;2023-05-21T05:30:51;101925.53;;;14.21;79.06
71964;BME280;59834;52.124;5.422;2023-05-21T05:33:22;101910.31;;;14.26;79.20
71964;BME280;59834;52.124;5.422;2023-05-21T05:35:49;101924.97;;;14.30;79.49
71964;BME280;59834;52.124;5.422;2023-05-21T05:38:16;101922.03;;;14.34;79.36
71964;BME280;59834;52.124;5.422;2023-05-21T05:40:46;101923.09;;;14.32;78.70
71964;BME280;59834;52.124;5.422;2023-05-21T05:43:13;101917.06;;;14.30;79.11
71964;BME280;59834;52.124;5.422;2023-05-21T05:45:40;101918.75;;;14.31;78.91
71964;BME280;59834;52.124;5.422;2023-05-21T05:48:07;101922.97;;;14.33;78.37
71964;BME280;59834;52.124;5.422;2023-05-21T05:50:34;101920.16;;;14.36;78.95
71964;BME280;59834;52.124;5.422;2023-05-21T05:53:01;101922.69;;;14.38;79.50
71964;BME280;59834;52.124;5.422;2023-05-21T05:55:29;101924.47;;;14.37;79.00
71964;BME280;59834;52.124;5.422;2023-05-21T05:57:55;101921.94;;;14.36;78.93
71964;BME280;59834;52.124;5.422;2023-05-21T06:00:22;101925.31;;;14.38;78.92
71964;BME280;59834;52.124;5.422;2023-05-21T06:02:49;101921.75;;;14.39;79.16
71964;BME280;59834;52.124;5.422;2023-05-21T06:05:16;101917.59;;;14.35;79.03
71964;BME280;59834;52.124;5.422;2023-05-21T06:07:44;101910.38;;;14.38;78.89
71964;BME280;59834;52.124;5.422;2023-05-21T06:10:24;101908.41;;;14.56;78.39
71964;BME280;59834;52.124;5.422;2023-05-21T06:12:51;101906.09;;;14.79;77.83
71964;BME280;59834;52.124;5.422;2023-05-21T06:15:18;101899.75;;;14.96;77.43
71964;BME280;59834;52.124;5.422;2023-05-21T06:17:45;101908.38;;;14.98;76.22
71964;BME280;59834;52.124;5.422;2023-05-21T06:20:16;101910.94;;;15.12;76.13
71964;BME280;59834;52.124;5.422;2023-05-21T06:22:44;101907.03;;;15.45;75.15
71964;BME280;59834;52.124;5.422;2023-05-21T06:25:11;101903.59;;;15.83;74.20
71964;BME280;59834;52.124;5.422;2023-05-21T06:27:38;101900.81;;;16.35;72.06
71964;BME280;59834;52.124;5.422;2023-05-21T06:30:05;101903.84;;;16.55;70.95
71964;BME280;59834;52.124;5.422;2023-05-21T06:32:35;101895.00;;;16.80;70.03
71964;BME280;59834;52.124;5.422;2023-05-21T06:35:05;101900.50;;;16.77;70.12
71964;BME280;59834;52.124;5.422;2023-05-21T06:37:31;101895.97;;;16.66;69.27
71964;BME280;59834;52.124;5.422;2023-05-21T06:39:58;101898.59;;;16.42;70.66
71964;BME280;59834;52.124;5.422;2023-05-21T06:42:26;101902.22;;;16.28;71.32
71964;BME280;59834;52.124;5.422;2023-05-21T06:44:52;101905.81;;;16.14;71.97
71964;BME280;59834;52.124;5.422;2023-05-21T06:47:20;101900.97;;;16.21;71.77
71964;BME280;59834;52.124;5.422;2023-05-21T06:49:47;101904.69;;;16.55;71.12
71964;BME280;59834;52.124;5.422;2023-05-21T06:52:16;101893.00;;;16.46;70.69
71964;BME280;59834;52.124;5.422;2023-05-21T06:54:47;101891.34;;;16.20;71.41
71964;BME280;59834;52.124;5.422;2023-05-21T06:57:19;101898.81;;;16.26;71.83
71964;BME280;59834;52.124;5.422;2023-05-21T06:59:46;101895.75;;;16.32;72.55
71964;BME280;59834;52.124;5.422;2023-05-21T07:02:16;101893.44;;;16.27;71.93
71964;BME280;59834;52.124;5.422;2023-05-21T07:04:52;101896.94;;;16.02;72.49
71964;BME280;59834;52.124;5.422;2023-05-21T07:07:19;101894.53;;;15.99;73.24
71964;BME280;59834;52.124;5.422;2023-05-21T07:09:46;101893.59;;;16.13;72.30
71964;BME280;59834;52.124;5.422;2023-05-21T07:12:12;101890.06;;;16.13;72.65
71964;BME280;59834;52.124;5.422;2023-05-21T07:14:42;101883.44;;;16.07;72.91
71964;BME280;59834;52.124;5.422;2023-05-21T07:17:17;101885.13;;;16.21;71.89
71964;BME280;59834;52.124;5.422;2023-05-21T07:19:44;101880.88;;;16.31;71.93
71964;BME280;59834;52.124;5.422;2023-05-21T07:22:11;101891.91;;;16.49;71.75
71964;BME280;59834;52.124;5.422;2023-05-21T07:24:39;101893.28;;;16.55;71.23
71964;BME280;59834;52.124;5.422;2023-05-21T07:27:06;101906.28;;;16.58;71.29
71964;BME280;59834;52.124;5.422;2023-05-21T07:29:50;101901.59;;;16.61;70.51
71964;BME280;59834;52.124;5.422;2023-05-21T07:32:17;101902.88;;;16.56;70.93
71964;BME280;59834;52.124;5.422;2023-05-21T07:34:44;101902.22;;;16.78;70.67
71964;BME280;59834;52.124;5.422;2023-05-21T07:37:13;101899.19;;;16.95;70.82
71964;BME280;59834;52.124;5.422;2023-05-21T07:39:40;101883.50;;;17.16;68.96
71964;BME280;59834;52.124;5.422;2023-05-21T07:42:06;101892.69;;;17.23;68.76
71964;BME280;59834;52.124;5.422;2023-05-21T07:44:33;101896.03;;;17.14;69.33
71964;BME280;59834;52.124;5.422;2023-05-21T07:47:00;101889.78;;;17.15;69.09
71964;BME280;59834;52.124;5.422;2023-05-21T07:49:27;101883.91;;;17.23;68.72
71964;BME280;59834;52.124;5.422;2023-05-21T07:51:54;101882.59;;;17.28;68.37
71964;BME280;59834;52.124;5.422;2023-05-21T07:54:21;101891.19;;;17.43;67.76
71964;BME280;59834;52.124;5.422;2023-05-21T07:56:51;101889.88;;;17.49;67.78
71964;BME280;59834;52.124;5.422;2023-05-21T07:59:19;101883.16;;;17.67;67.37
71964;BME280;59834;52.124;5.422;2023-05-21T08:01:46;101875.22;;;17.67;66.50
71964;BME280;59834;52.124;5.422;2023-05-21T08:04:13;101876.41;;;17.52;66.92
71964;BME280;59834;52.124;5.422;2023-05-21T08:06:40;101868.00;;;17.58;67.49
71964;BME280;59834;52.124;5.422;2023-05-21T08:09:08;101866.44;;;17.66;67.10
71964;BME280;59834;52.124;5.422;2023-05-21T08:11:35;101867.22;;;17.80;67.12
71964;BME280;59834;52.124;5.422;2023-05-21T08:14:02;101859.84;;;17.72;67.26
71964;BME280;59834;52.124;5.422;2023-05-21T08:16:31;101862.34;;;17.62;67.31
71964;BME280;59834;52.124;5.422;2023-05-21T08:18:58;101864.44;;;17.81;67.99
71964;BME280;59834;52.124;5.422;2023-05-21T08:21:25;101864.69;;;17.78;66.99
71964;BME280;59834;52.124;5.422;2023-05-21T08:23:52;101865.13;;;17.72;68.08
71964;BME280;59834;52.124;5.422;2023-05-21T08:26:20;101863.25;;;17.97;66.94
71964;BME280;59834;52.124;5.422;2023-05-21T08:28:47;101858.06;;;18.06;67.14
71964;BME280;59834;52.124;5.422;2023-05-21T08:31:17;101865.16;;;18.17;67.48
71964;BME280;59834;52.124;5.422;2023-05-21T08:33:53;101863.00;;;18.22;66.39
71964;BME280;59834;52.124;5.422;2023-05-21T08:36:24;101873.84;;;17.97;66.74
71964;BME280;59834;52.124;5.422;2023-05-21T08:38:52;101874.22;;;17.81;67.12
71964;BME280;59834;52.124;5.422;2023-05-21T08:41:20;101862.84;;;17.67;67.60
71964;BME280;59834;52.124;5.422;2023-05-21T08:43:54;101862.28;;;17.98;67.80
71964;BME280;59834;52.124;5.422;2023-05-21T08:46:23;101868.31;;;17.88;67.41
71964;BME280;59834;52.124;5.422;2023-05-21T08:48:51;101865.16;;;18.06;67.11
71964;BME280;59834;52.124;5.422;2023-05-21T08:51:23;101865.41;;;18.14;66.81
71964;BME280;59834;52.124;5.422;2023-05-21T08:53:49;101858.66;;;18.32;66.27
71964;BME280;59834;52.124;5.422;2023-05-21T08:56:16;101871.16;;;18.42;65.44
71964;BME280;59834;52.124;5.422;2023-05-21T08:58:47;101848.22;;;18.63;65.01
71964;BME280;59834;52.124;5.422;2023-05-21T09:01:15;101867.31;;;18.89;64.91
71964;BME280;59834;52.124;5.422;2023-05-21T09:03:45;101865.59;;;19.20;63.89
71964;BME280;59834;52.124;5.422;2023-05-21T09:06:36;101868.66;;;19.16;62.99
71964;BME280;59834;52.124;5.422;2023-05-21T09:09:11;101875.22;;;19.33;62.97
71964;BME280;59834;52.124;5.422;2023-05-21T09:11:40;101867.81;;;19.57;62.16
71964;BME280;59834;52.124;5.422;2023-05-21T09:14:08;101863.16;;;19.70;61.05
71964;BME280;59834;52.124;5.422;2023-05-21T09:16:36;101863.34;;;19.37;62.57
71964;BME280;59834;52.124;5.422;2023-05-21T09:19:04;101861.81;;;19.55;62.13
71964;BME280;59834;52.124;5.422;2023-05-21T09:21:31;101865.03;;;19.38;61.96
71964;BME280;59834;52.124;5.422;2023-05-21T09:23:59;101854.66;;;19.35;62.33
71964;BME280;59834;52.124;5.422;2023-05-21T09:26:27;101854.69;;;19.55;62.26
71964;BME280;59834;52.124;5.422;2023-05-21T09:28:58;101854.53;;;20.09;60.80
71964;BME280;59834;52.124;5.422;2023-05-21T09:31:26;101853.13;;;20.14;59.48
71964;BME280;59834;52.124;5.422;2023-05-21T09:33:57;101849.25;;;19.88;60.15
71964;BME280;59834;52.124;5.422;2023-05-21T09:36:25;101846.69;;;20.07;60.56
71964;BME280;59834;52.124;5.422;2023-05-21T09:38:53;101850.53;;;20.34;59.44
71964;BME280;59834;52.124;5.422;2023-05-21T09:41:30;101852.38;;;19.93;60.43
71964;BME280;59834;52.124;5.422;2023-05-21T09:43:59;101852.44;;;19.61;60.55
71964;BME280;59834;52.124;5.422;2023-05-21T09:46:39;101846.91;;;19.64;61.05
71964;BME280;59834;52.124;5.422;2023-05-21T09:49:27;101830.75;;;19.76;60.72
71964;BME280;59834;52.124;5.422;2023-05-21T09:51:58;101843.78;;;19.80;60.80
71964;BME280;59834;52.124;5.422;2023-05-21T09:54:30;101836.06;;;20.07;60.42
71964;BME280;59834;52.124;5.422;2023-05-21T09:57:01;101825.22;;;19.89;60.67
71964;BME280;59834;52.124;5.422;2023-05-21T09:59:37;101819.25;;;19.97;60.14
71964;BME280;59834;52.124;5.422;2023-05-21T10:02:20;101821.00;;;20.27;59.91
71964;BME280;59834;52.124;5.422;2023-05-21T10:04:50;101819.44;;;20.24;59.66
71964;BME280;59834;52.124;5.422;2023-05-21T10:07:21;101819.41;;;20.15;59.03
71964;BME280;59834;52.124;5.422;2023-05-21T10:09:56;101809.09;;;20.21;59.49
71964;BME280;59834;52.124;5.422;2023-05-21T10:12:23;101815.53;;;20.29;59.33
71964;BME280;59834;52.124;5.422;2023-05-21T10:14:53;101808.97;;;20.23;59.54
71964;BME280;59834;52.124;5.422;2023-05-21T10:17:24;101801.09;;;20.21;60.15
71964;BME280;59834;52.124;5.422;2023-05-21T10:19:55;101800.72;;;20.36;59.49
71964;BME280;59834;52.124;5.422;2023-05-21T10:22:23;101801.84;;;20.33;59.56
71964;BME280;59834;52.124;5.422;2023-05-21T10:24:53;101804.41;;;20.54;59.12
71964;BME280;59834;52.124;5.422;2023-05-21T10:27:21;101799.06;;;20.44;58.99
71964;BME280;59834;52.124;5.422;2023-05-21T10:29:49;101794.78;;;20.73;58.96
71964;BME280;59834;52.124;5.422;2023-05-21T10:32:19;101800.50;;;20.78;58.49
71964;BME280;59834;52.124;5.422;2023-05-21T10:34:47;101794.06;;;20.80;57.87
71964;BME280;59834;52.124;5.422;2023-05-21T10:37:15;101785.53;;;20.77;58.82
71964;BME280;59834;52.124;5.422;2023-05-21T10:39:42;101785.38;;;20.88;57.92
71964;BME280;59834;52.124;5.422;2023-05-21T10:42:19;101781.31;;;20.74;58.81
71964;BME280;59834;52.124;5.422;2023-05-21T10:48:18;101780.03;;;20.88;58.43
71964;BME280;59834;52.124;5.422;2023-05-21T10:51:14;101788.72;;;20.90;58.06
71964;BME280;59834;52.124;5.422;2023-05-21T10:59:43;101782.97;;;21.04;56.96
71964;BME280;59834;52.124;5.422;2023-05-21T11:02:20;101773.88;;;20.97;57.51
71964;BME280;59834;52.124;5.422;2023-05-21T11:04:58;101778.75;;;21.11;57.95
71964;BME280;59834;52.124;5.422;2023-05-21T11:07:48;101776.00;;;21.50;57.91
71964;BME280;59834;52.124;5.422;2023-05-21T11:10:35;101782.81;;;21.62;57.21
71964;BME280;59834;52.124;5.422;2023-05-21T11:13:14;101777.16;;;21.28;57.04
71964;BME280;59834;52.124;5.422;2023-05-21T11:21:13;101772.66;;;21.29;57.54
71964;BME280;59834;52.124;5.422;2023-05-21T11:23:53;101774.03;;;21.52;56.78
71964;BME280;59834;52.124;5.422;2023-05-21T11:26:24;101757.25;;;21.42;57.45
71964;BME280;59834;52.124;5.422;2023-05-21T11:31:32;101756.78;;;21.56;56.33
71964;BME280;59834;52.124;5.422;2023-05-21T11:34:23;101755.53;;;21.51;57.05
71964;BME280;59834;52.124;5.422;2023-05-21T11:39:44;101744.63;;;21.44;55.76
71964;BME280;59834;52.124;5.422;2023-05-21T11:42:30;101749.59;;;21.67;56.56
71964;BME280;59834;52.124;5.422;2023-05-21T11:44:58;101735.97;;;21.70;56.52
71964;BME280;59834;52.124;5.422;2023-05-21T11:47:28;101741.63;;;21.84;55.70
71964;BME280;59834;52.124;5.422;2023-05-21T11:50:01;101740.91;;;21.64;55.63
71964;BME280;59834;52.124;5.422;2023-05-21T11:52:29;101732.31;;;21.71;56.14
71964;BME280;59834;52.124;5.422;2023-05-21T11:54:58;101730.25;;;21.64;55.93
71964;BME280;59834;52.124;5.422;2023-05-21T11:57:28;101727.88;;;21.61;55.71
71964;BME280;59834;52.124;5.422;2023-05-21T12:00:02;101730.53;;;21.61;55.85
71964;BME280;59834;52.124;5.422;2023-05-21T12:02:49;101720.28;;;21.67;57.11
71964;BME280;59834;52.124;5.422;2023-05-21T12:05:17;101725.91;;;21.63;56.36
71964;BME280;59834;52.124;5.422;2023-05-21T12:07:47;101720.84;;;21.88;55.39
71964;BME280;59834;52.124;5.422;2023-05-21T12:10:20;101718.41;;;21.77;55.25
71964;BME280;59834;52.124;5.422;2023-05-21T12:12:55;101717.41;;;21.50;57.45
71964;BME280;59834;52.124;5.422;2023-05-21T12:15:24;101720.06;;;21.78;57.28
71964;BME280;59834;52.124;5.422;2023-05-21T12:17:53;101713.84;;;21.87;56.53
71964;BME280;59834;52.124;5.422;2023-05-21T12:20:21;101718.34;;;21.86;55.80
71964;BME280;59834;52.124;5.422;2023-05-21T12:22:50;101707.00;;;21.84;56.53
71964;BME280;59834;52.124;5.422;2023-05-21T12:25:24;101708.81;;;21.84;56.03
71964;BME280;59834;52.124;5.422;2023-05-21T12:27:50;101702.19;;;21.88;56.61
71964;BME280;59834;52.124;5.422;2023-05-21T12:30:24;101696.63;;;21.99;55.72
71964;BME280;59834;52.124;5.422;2023-05-21T12:32:51;101695.38;;;22.03;56.13
71964;BME280;59834;52.124;5.422;2023-05-21T12:35:22;101699.81;;;21.85;56.76
71964;BME280;59834;52.124;5.422;2023-05-21T12:37:49;101700.13;;;21.82;57.12
71964;BME280;59834;52.124;5.422;2023-05-21T12:40:18;101689.69;;;21.88;57.44
71964;BME280;59834;52.124;5.422;2023-05-21T12:42:45;101686.28;;;21.96;56.15
71964;BME280;59834;52.124;5.422;2023-05-21T12:45:13;101705.34;;;22.01;55.69
71964;BME280;59834;52.124;5.422;2023-05-21T12:47:40;101703.25;;;21.95;56.67
71964;BME280;59834;52.124;5.422;2023-05-21T12:50:21;101702.44;;;22.12;56.28
71964;BME280;59834;52.124;5.422;2023-05-21T12:52:52;101702.84;;;22.35;55.14
71964;BME280;59834;52.124;5.422;2023-05-21T12:55:21;101687.53;;;22.20;56.00
71964;BME280;59834;52.124;5.422;2023-05-21T12:57:52;101687.66;;;22.00;55.50
71964;BME280;59834;52.124;5.422;2023-05-21T13:00:26;101696.28;;;21.94;56.71
71964;BME280;59834;52.124;5.422;2023-05-21T13:02:54;101693.00;;;22.00;56.36
71964;BME280;59834;52.124;5.422;2023-05-21T13:05:23;101684.59;;;22.13;55.97
71964;BME280;59834;52.124;5.422;2023-05-21T13:07:50;101689.28;;;22.11;55.55
71964;BME280;59834;52.124;5.422;2023-05-21T13:10:19;101693.19;;;22.17;55.87
71964;BME280;59834;52.124;5.422;2023-05-21T13:12:46;101692.34;;;22.16;56.54
71964;BME280;59834;52.124;5.422;2023-05-21T13:17:52;101699.28;;;22.27;55.04
71964;BME280;59834;52.124;5.422;2023-05-21T13:20:22;101678.72;;;22.37;54.37
71964;BME280;59834;52.124;5.422;2023-05-21T13:22:52;101688.06;;;22.41;55.74
71964;BME280;59834;52.124;5.422;2023-05-21T13:25:23;101687.22;;;22.41;54.86
71964;BME280;59834;52.124;5.422;2023-05-21T13:27:51;101676.56;;;22.23;55.76
71964;BME280;59834;52.124;5.422;2023-05-21T13:30:20;101683.72;;;22.22;56.83
71964;BME280;59834;52.124;5.422;2023-05-21T13:32:47;101677.16;;;22.52;56.58
71964;BME280;59834;52.124;5.422;2023-05-21T13:35:16;101673.66;;;22.78;54.58
71964;BME280;59834;52.124;5.422;2023-05-21T13:37:44;101660.31;;;22.52;55.53